createdAt,value
2023-04-23T00:03:14.799Z,71.33
2023-04-23T00:08:16.782Z,70.94
2023-04-23T00:13:18.097Z,71.89
2023-04-23T00:18:20.102Z,73.70
2023-04-23T00:23:21.296Z,73.83
2023-04-23T00:28:22.522Z,73.23
2023-04-23T00:33:23.807Z,73.48
2023-04-23T00:38:26.483Z,73.69
2023-04-23T00:43:27.947Z,72.66
2023-04-23T00:48:29.278Z,72.68
2023-04-23T00:53:30.680Z,73.65
2023-04-23T00:58:33.101Z,75.18
2023-04-23T01:03:34.640Z,73.75
2023-04-23T01:08:36.482Z,74.57
2023-04-23T01:13:37.810Z,75.23
2023-04-23T01:18:41.237Z,73.30
2023-04-23T01:23:42.506Z,73.16
2023-04-23T01:28:43.918Z,72.40
2023-04-23T01:33:45.228Z,72.93
2023-04-23T01:38:46.516Z,72.85
2023-04-23T01:43:47.964Z,72.46
2023-04-23T01:48:49.391Z,72.65
2023-04-23T01:53:50.749Z,74.81
2023-04-23T01:58:52.009Z,76.27
2023-04-23T02:03:53.345Z,74.48
2023-04-23T02:08:54.606Z,73.72
2023-04-23T02:13:55.871Z,74.19
2023-04-23T02:18:57.146Z,74.35
2023-04-23T02:23:58.552Z,77.58
2023-04-23T02:28:59.789Z,77.06
2023-04-23T02:34:00.993Z,76.27
2023-04-23T02:39:02.267Z,74.91
2023-04-23T02:44:03.479Z,74.56
2023-04-23T02:49:05.215Z,75.03
2023-04-23T02:54:06.472Z,74.94
2023-04-23T02:59:08.393Z,75.41
2023-04-23T03:04:09.789Z,74.00
2023-04-23T03:09:11.890Z,74.40
2023-04-23T03:14:13.308Z,74.31
2023-04-23T03:19:14.695Z,73.42
2023-04-23T03:24:16.135Z,73.02
2023-04-23T03:29:17.473Z,73.02
2023-04-23T03:34:18.729Z,72.79
2023-04-23T03:39:19.996Z,72.83
2023-04-23T03:44:21.286Z,74.55
2023-04-23T03:49:23.045Z,75.54
2023-04-23T03:54:25.896Z,75.64
2023-04-23T03:59:27.154Z,77.27
2023-04-23T04:04:28.821Z,76.12
2023-04-23T04:09:30.394Z,75.56
2023-04-23T04:14:31.754Z,75.91
2023-04-23T04:19:33.118Z,74.69
2023-04-23T04:24:35.583Z,74.87
2023-04-23T04:29:37.094Z,74.48
2023-04-23T04:34:38.502Z,74.97
2023-04-23T04:39:40.062Z,76.79
2023-04-23T04:44:42.516Z,79.32
2023-04-23T04:49:44.234Z,77.85
2023-04-23T04:54:45.647Z,76.65
2023-04-23T04:59:46.920Z,75.68
2023-04-23T05:04:48.187Z,75.86
2023-04-23T05:09:49.493Z,75.93
2023-04-23T05:14:52.268Z,76.40
2023-04-23T05:19:54.548Z,73.46
2023-04-23T05:24:55.804Z,74.61
2023-04-23T05:29:57.180Z,71.24
2023-04-23T05:34:59.954Z,69.83
2023-04-23T05:40:02.601Z,67.39
2023-04-23T05:45:03.915Z,69.57
2023-04-23T05:50:05.408Z,70.11
2023-04-23T05:55:06.791Z,69.76
2023-04-23T06:00:09.885Z,69.13
2023-04-23T06:05:11.453Z,70.76
2023-04-23T06:10:13.134Z,69.09
2023-04-23T06:15:14.385Z,67.76
2023-04-23T06:20:15.657Z,68.41
2023-04-23T06:25:17.002Z,68.86
2023-04-23T06:30:18.265Z,69.06
2023-04-23T06:35:19.523Z,68.46
2023-04-23T06:40:21.009Z,68.25
2023-04-23T06:45:22.278Z,68.43
2023-04-23T06:50:23.584Z,70.13
2023-04-23T06:55:26.329Z,71.94
2023-04-23T07:00:27.818Z,71.63
2023-04-23T07:05:29.286Z,70.88
2023-04-23T07:10:30.562Z,70.34
2023-04-23T07:15:31.881Z,69.86
2023-04-23T07:20:33.142Z,71.56
2023-04-23T07:25:34.358Z,72.70
2023-04-23T07:30:35.761Z,75.28
2023-04-23T07:35:37.037Z,74.69
2023-04-23T07:40:38.288Z,74.61
2023-04-23T07:45:39.519Z,73.49
2023-04-23T07:50:40.804Z,73.88
2023-04-23T07:55:42.072Z,74.13
2023-04-23T08:00:43.308Z,73.44
2023-04-23T08:05:44.695Z,72.99
2023-04-23T08:10:46.164Z,74.66
2023-04-23T08:15:49.060Z,75.24
2023-04-23T08:20:50.597Z,75.61
2023-04-23T08:25:51.836Z,73.82
2023-04-23T08:30:53.092Z,73.93
2023-04-23T08:35:54.409Z,74.86
2023-04-23T08:40:55.658Z,73.39
2023-04-23T08:45:56.934Z,73.06
2023-04-23T08:50:58.203Z,72.58
2023-04-23T08:55:59.441Z,74.10
2023-04-23T09:01:00.767Z,73.70
2023-04-23T09:06:02.128Z,74.91
2023-04-23T09:11:03.521Z,75.71
2023-04-23T09:16:04.808Z,76.14
2023-04-23T09:21:06.456Z,77.36
2023-04-23T09:26:07.788Z,77.53
2023-04-23T09:31:09.062Z,77.53
2023-04-23T09:36:11.045Z,79.89
2023-04-23T09:41:12.357Z,78.84
2023-04-23T09:46:13.649Z,79.19
2023-04-23T09:51:15.378Z,78.83
2023-04-23T09:56:16.617Z,79.49
2023-04-23T10:01:18.427Z,78.21
2023-04-23T10:06:37.013Z,77.59
2023-04-23T10:11:40.930Z,76.36
2023-04-23T10:16:48.802Z,76.31
2023-04-23T10:21:56.111Z,74.39
2023-04-23T10:27:02.689Z,74.67
2023-04-23T10:32:03.967Z,75.54
2023-04-23T10:37:05.264Z,75.60
2023-04-23T10:42:06.649Z,73.90
2023-04-23T10:47:08.198Z,74.69
2023-04-23T10:52:19.550Z,75.19
2023-04-23T10:57:22.319Z,73.59
2023-04-23T11:02:24.170Z,73.67
2023-04-23T11:07:25.643Z,71.32
2023-04-23T11:12:27.062Z,71.44
2023-04-23T11:17:28.603Z,73.19
2023-04-23T11:22:29.898Z,71.63
2023-04-23T11:27:32.045Z,70.68
2023-04-23T11:32:33.325Z,69.40
2023-04-23T11:37:34.664Z,68.17
2023-04-23T11:42:35.891Z,67.05
2023-04-23T11:47:37.192Z,69.17
2023-04-23T11:52:39.716Z,68.03
2023-04-23T11:57:41.021Z,68.71
2023-04-23T12:02:42.338Z,68.38
2023-04-23T12:07:43.935Z,62.52
2023-04-23T12:12:45.286Z,59.39
2023-04-23T12:17:46.589Z,58.21
2023-04-23T12:22:47.902Z,55.00
2023-04-23T12:27:49.338Z,55.39
2023-04-23T12:32:50.646Z,56.71
2023-04-23T12:37:51.876Z,56.93
2023-04-23T12:42:53.277Z,55.22
2023-04-23T12:47:54.656Z,50.21
2023-04-23T12:52:55.902Z,49.90
2023-04-23T12:57:57.272Z,48.79
2023-04-23T13:02:58.590Z,46.98
2023-04-23T13:07:59.913Z,45.23
2023-04-23T13:13:01.162Z,46.59
2023-04-23T13:18:02.475Z,47.69
2023-04-23T13:23:03.901Z,46.84
2023-04-23T13:28:05.210Z,43.21
2023-04-23T13:33:06.482Z,44.31
2023-04-23T13:38:07.715Z,44.33
2023-04-23T13:43:08.988Z,43.18
2023-04-23T13:48:10.220Z,42.24
2023-04-23T13:53:11.585Z,44.35
2023-04-23T13:58:12.990Z,42.97
2023-04-23T14:03:16.578Z,43.01
2023-04-23T14:08:17.957Z,40.61
2023-04-23T14:13:19.267Z,41.49
2023-04-23T14:18:21.084Z,41.69
2023-04-23T14:23:22.413Z,40.41
2023-04-23T14:28:23.743Z,41.35
2023-04-23T14:33:24.998Z,44.10
2023-04-23T14:38:26.762Z,46.02
2023-04-23T14:43:27.985Z,46.13
2023-04-23T14:48:29.665Z,43.75
2023-04-23T14:53:31.026Z,44.98
2023-04-23T14:58:32.500Z,43.68
2023-04-23T15:03:34.007Z,41.55
2023-04-23T15:08:35.357Z,42.28
2023-04-23T15:13:39.679Z,42.20
2023-04-23T15:18:41.065Z,40.20
2023-04-23T15:23:42.365Z,41.61
2023-04-23T15:28:43.632Z,40.67
2023-04-23T15:33:44.979Z,42.66
2023-04-23T15:38:46.258Z,44.59
2023-04-23T15:43:50.336Z,45.89
2023-04-23T15:48:51.768Z,47.41
2023-04-23T15:53:53.248Z,48.03
2023-04-23T15:58:54.514Z,49.14
2023-04-23T16:04:09.586Z,50.41
2023-04-23T16:09:11.891Z,50.37
2023-04-23T16:14:13.209Z,48.32
2023-04-23T16:19:14.518Z,48.04
2023-04-23T16:24:17.214Z,46.46
2023-04-23T16:29:22.584Z,45.99
2023-04-23T16:34:24.383Z,45.73
2023-04-23T16:39:25.588Z,45.76
2023-04-23T16:44:26.797Z,46.29
2023-04-23T16:49:28.126Z,46.95
2023-04-23T16:54:29.415Z,47.29
2023-04-23T16:59:30.687Z,47.93
2023-04-23T17:04:32.011Z,48.65
2023-04-23T17:09:34.576Z,49.79
2023-04-23T17:14:35.849Z,51.69
2023-04-23T17:19:37.094Z,53.04
2023-04-23T17:24:39.106Z,54.48
2023-04-23T17:29:41.022Z,55.24
2023-04-23T17:34:43.194Z,55.55
2023-04-23T17:39:44.749Z,55.79
2023-04-23T17:44:45.964Z,56.90
2023-04-23T17:49:47.315Z,57.60
2023-04-23T17:54:48.529Z,57.24
2023-04-23T17:59:49.756Z,57.05
2023-04-23T18:04:51.033Z,57.28
2023-04-23T18:09:52.274Z,58.07
2023-04-23T18:14:53.552Z,57.90
2023-04-23T18:19:54.854Z,58.73
2023-04-23T18:24:56.657Z,59.03
2023-04-23T18:29:58.814Z,59.79
2023-04-23T18:35:01.352Z,59.70
2023-04-23T18:40:02.673Z,59.80
2023-04-23T18:45:04.093Z,60.32
2023-04-23T18:50:05.335Z,63.95
2023-04-23T18:55:06.586Z,65.05
2023-04-23T19:00:08.203Z,63.62
2023-04-23T19:05:09.764Z,63.22
2023-04-23T19:10:13.916Z,63.95
2023-04-23T19:15:15.644Z,64.66
2023-04-23T19:20:18.634Z,63.93
2023-04-23T19:25:19.954Z,64.98
2023-04-23T19:30:21.282Z,64.07
2023-04-23T19:35:22.545Z,64.85
2023-04-23T19:40:23.833Z,64.82
2023-04-23T19:45:26.814Z,64.97
2023-04-23T19:50:28.092Z,65.58
2023-04-23T19:55:29.381Z,66.39
2023-04-23T20:00:31.186Z,70.77
2023-04-23T20:05:32.486Z,72.76
2023-04-23T20:10:34.886Z,74.12
2023-04-23T20:15:36.750Z,74.01
2023-04-23T20:20:39.921Z,76.44
2023-04-23T20:25:41.277Z,80.08
2023-04-23T20:30:42.869Z,84.88
2023-04-23T20:35:44.301Z,88.02
2023-04-23T20:40:46.407Z,86.04
2023-04-23T20:45:47.716Z,84.23
2023-04-23T20:50:48.992Z,83.51
2023-04-23T20:55:50.472Z,80.46
2023-04-23T21:00:51.926Z,78.79
2023-04-23T21:05:53.669Z,78.60
2023-04-23T21:10:54.892Z,78.11
2023-04-23T21:15:56.490Z,78.67
2023-04-23T21:20:57.883Z,77.88
2023-04-23T21:25:59.101Z,75.97
2023-04-23T21:31:00.510Z,76.99
2023-04-23T21:36:01.744Z,79.71
2023-04-23T21:41:03.250Z,79.34
2023-04-23T21:46:04.602Z,77.57
2023-04-23T21:51:05.838Z,75.72
2023-04-23T21:56:07.091Z,75.66
2023-04-23T22:01:08.643Z,75.91
2023-04-23T22:06:09.992Z,76.19
2023-04-23T22:11:11.386Z,76.08
2023-04-23T22:16:26.905Z,75.89
2023-04-23T22:21:28.507Z,78.35
2023-04-23T22:26:29.759Z,78.75
2023-04-23T22:31:31.013Z,77.06
2023-04-23T22:36:32.328Z,76.78
2023-04-23T22:41:34.025Z,75.12
2023-04-23T22:46:35.779Z,75.91
2023-04-23T22:51:38.771Z,76.62
2023-04-23T22:56:40.089Z,76.46
2023-04-23T23:01:41.444Z,75.92
2023-04-23T23:06:43.293Z,76.41
2023-04-23T23:11:44.589Z,75.41
2023-04-23T23:16:45.903Z,76.56
2023-04-23T23:21:47.155Z,76.35
2023-04-23T23:26:48.404Z,77.27
2023-04-23T23:31:49.832Z,77.48
2023-04-23T23:36:51.844Z,78.14
2023-04-23T23:41:53.082Z,78.62
2023-04-23T23:46:54.428Z,79.61
2023-04-23T23:51:55.674Z,79.14
2023-04-23T23:56:57.284Z,80.08
